createdAt,value
2023-05-14T00:00:45.415Z,57.92
2023-05-14T00:03:30.032Z,57.85
2023-05-14T00:05:58.806Z,57.93
2023-05-14T00:08:27.672Z,57.89
2023-05-14T00:10:56.179Z,57.96
2023-05-14T00:13:26.577Z,58.26
2023-05-14T00:15:56.885Z,57.90
2023-05-14T00:18:26.189Z,57.92
2023-05-14T00:20:55.197Z,58.21
2023-05-14T00:23:24.472Z,57.95
2023-05-14T00:25:53.065Z,57.84
2023-05-14T00:28:22.092Z,57.93
2023-05-14T00:30:50.789Z,58.27
2023-05-14T00:33:21.125Z,58.25
2023-05-14T00:35:50.063Z,58.60
2023-05-14T00:38:19.730Z,58.78
2023-05-14T00:40:51.824Z,58.93
2023-05-14T00:43:21.192Z,58.63
2023-05-14T00:45:52.137Z,58.83
2023-05-14T00:48:23.221Z,58.26
2023-05-14T00:50:52.817Z,57.55
2023-05-14T00:53:22.210Z,57.52
2023-05-14T00:55:52.027Z,58.27
2023-05-14T00:58:21.354Z,58.52
2023-05-14T01:00:50.141Z,58.12
2023-05-14T01:03:19.527Z,58.16
2023-05-14T01:06:01.149Z,58.64
2023-05-14T01:08:37.813Z,58.87
2023-05-14T01:11:10.576Z,59.54
2023-05-14T01:13:53.103Z,59.24
2023-05-14T01:16:23.358Z,59.76
2023-05-14T01:18:53.150Z,60.13
2023-05-14T01:21:36.004Z,60.18
2023-05-14T01:24:05.725Z,60.44
2023-05-14T01:26:34.708Z,60.40
2023-05-14T01:29:12.910Z,60.62
2023-05-14T01:31:44.940Z,60.71
2023-05-14T01:34:15.911Z,60.64
2023-05-14T01:36:46.600Z,60.52
2023-05-14T01:39:16.447Z,60.64
2023-05-14T01:41:48.523Z,61.54
2023-05-14T01:44:18.506Z,61.57
2023-05-14T01:46:47.118Z,61.56
2023-05-14T01:49:18.209Z,61.74
2023-05-14T01:51:49.046Z,62.09
2023-05-14T01:54:18.051Z,62.38
2023-05-14T01:56:47.186Z,62.40
2023-05-14T01:59:16.233Z,62.13
2023-05-14T02:01:46.382Z,62.01
2023-05-14T02:04:15.662Z,62.30
2023-05-14T02:06:44.266Z,62.40
2023-05-14T02:09:14.597Z,62.62
2023-05-14T02:11:43.264Z,62.33
2023-05-14T02:14:12.216Z,62.69
2023-05-14T02:16:40.852Z,62.83
2023-05-14T02:19:09.795Z,63.23
2023-05-14T02:21:38.333Z,62.73
2023-05-14T02:24:07.433Z,63.04
2023-05-14T02:26:37.971Z,63.20
2023-05-14T02:29:06.880Z,62.52
2023-05-14T02:31:35.959Z,62.66
2023-05-14T02:34:07.086Z,62.59
2023-05-14T02:36:35.750Z,62.40
2023-05-14T02:39:05.003Z,62.68
2023-05-14T02:41:33.634Z,62.64
2023-05-14T02:44:04.142Z,62.34
2023-05-14T02:46:33.430Z,61.90
2023-05-14T02:49:04.147Z,61.86
2023-05-14T02:51:32.806Z,61.12
2023-05-14T02:54:01.885Z,60.88
2023-05-14T02:56:30.508Z,60.80
2023-05-14T02:58:59.450Z,60.35
2023-05-14T03:01:30.138Z,60.33
2023-05-14T03:03:59.536Z,60.32
2023-05-14T03:06:28.163Z,60.70
2023-05-14T03:08:57.203Z,60.22
2023-05-14T03:11:25.958Z,60.70
2023-05-14T03:13:54.869Z,61.47
2023-05-14T03:16:24.273Z,61.66
2023-05-14T03:18:54.565Z,61.69
2023-05-14T03:21:23.382Z,61.75
2023-05-14T03:23:54.067Z,61.08
2023-05-14T03:26:22.742Z,61.31
2023-05-14T03:28:54.925Z,61.31
2023-05-14T03:31:23.797Z,61.45
2023-05-14T03:33:56.481Z,61.51
2023-05-14T03:36:25.372Z,61.27
2023-05-14T03:38:55.022Z,61.45
2023-05-14T03:41:24.365Z,61.64
2023-05-14T03:43:53.256Z,61.31
2023-05-14T03:46:21.949Z,61.41
2023-05-14T03:48:51.142Z,61.57
2023-05-14T03:51:21.467Z,61.64
2023-05-14T03:53:50.473Z,61.63
2023-05-14T03:56:19.191Z,61.53
2023-05-14T03:58:48.946Z,61.96
2023-05-14T04:01:17.621Z,61.95
2023-05-14T04:03:46.774Z,61.83
2023-05-14T04:06:16.235Z,61.95
2023-05-14T04:08:46.676Z,62.40
2023-05-14T04:11:15.348Z,62.21
2023-05-14T04:13:44.267Z,62.26
2023-05-14T04:16:13.265Z,62.74
2023-05-14T04:18:42.360Z,62.56
2023-05-14T04:21:11.162Z,62.72
2023-05-14T04:23:40.129Z,62.77
2023-05-14T04:26:10.187Z,62.44
2023-05-14T04:28:39.144Z,62.82
2023-05-14T04:31:07.676Z,62.93
2023-05-14T04:33:36.798Z,63.38
2023-05-14T04:36:06.480Z,63.63
2023-05-14T04:38:35.577Z,64.12
2023-05-14T04:41:04.844Z,64.02
2023-05-14T04:43:35.257Z,64.14
2023-05-14T04:46:04.021Z,65.05
2023-05-14T04:48:33.135Z,65.32
2023-05-14T04:51:02.084Z,64.99
2023-05-14T04:53:31.070Z,65.67
2023-05-14T04:55:59.702Z,65.63
2023-05-14T04:58:29.320Z,66.09
2023-05-14T05:00:59.721Z,66.75
2023-05-14T05:03:28.913Z,66.26
2023-05-14T05:05:57.886Z,66.35
2023-05-14T05:08:27.727Z,65.63
2023-05-14T05:10:56.478Z,66.09
2023-05-14T05:13:25.561Z,65.88
2023-05-14T05:15:54.252Z,66.84
2023-05-14T05:18:24.743Z,66.32
2023-05-14T05:20:53.675Z,66.46
2023-05-14T05:23:22.743Z,65.57
2023-05-14T05:25:51.592Z,65.64
2023-05-14T05:28:20.510Z,66.93
2023-05-14T05:30:49.165Z,66.56
2023-05-14T05:33:18.195Z,66.18
2023-05-14T05:35:48.339Z,66.75
2023-05-14T05:38:18.330Z,66.76
2023-05-14T05:40:47.066Z,67.35
2023-05-14T05:43:16.776Z,67.02
2023-05-14T05:45:46.025Z,67.44
2023-05-14T05:48:15.052Z,66.95
2023-05-14T05:50:44.938Z,66.95
2023-05-14T05:53:16.617Z,66.98
2023-05-14T05:55:45.450Z,67.21
2023-05-14T05:58:17.291Z,67.40
2023-05-14T06:00:46.936Z,67.29
2023-05-14T06:03:16.118Z,66.87
2023-05-14T06:05:45.029Z,68.02
2023-05-14T06:08:16.190Z,67.94
2023-05-14T06:10:46.266Z,68.18
2023-05-14T06:13:16.528Z,68.39
2023-05-14T06:15:45.218Z,67.93
2023-05-14T06:18:14.310Z,66.96
2023-05-14T06:20:42.960Z,67.15
2023-05-14T06:23:12.495Z,66.90
2023-05-14T06:25:42.514Z,66.50
2023-05-14T06:28:11.419Z,66.53
2023-05-14T06:30:40.098Z,66.74
2023-05-14T06:33:09.219Z,68.17
2023-05-14T06:35:38.129Z,67.45
2023-05-14T06:38:07.074Z,67.30
2023-05-14T06:40:35.648Z,66.90
2023-05-14T06:43:06.813Z,66.71
2023-05-14T06:45:35.972Z,66.67
2023-05-14T06:48:06.031Z,66.17
2023-05-14T06:50:34.836Z,65.90
2023-05-14T06:53:03.703Z,65.76
2023-05-14T06:55:32.460Z,65.77
2023-05-14T06:58:01.409Z,65.49
2023-05-14T07:00:31.824Z,65.53
2023-05-14T07:03:00.837Z,65.75
2023-05-14T07:05:29.886Z,65.37
2023-05-14T07:07:59.055Z,65.58
2023-05-14T07:10:27.829Z,65.32
2023-05-14T07:12:57.030Z,64.67
2023-05-14T07:15:25.859Z,64.97
2023-05-14T07:17:56.214Z,65.09
2023-05-14T07:20:25.406Z,64.31
2023-05-14T07:22:54.840Z,64.77
2023-05-14T07:25:23.567Z,65.07
2023-05-14T07:27:52.683Z,65.17
2023-05-14T07:30:21.865Z,65.03
2023-05-14T07:32:51.071Z,65.23
2023-05-14T07:35:21.365Z,65.49
2023-05-14T07:37:50.407Z,65.16
2023-05-14T07:40:19.520Z,64.91
2023-05-14T07:42:48.642Z,65.05
2023-05-14T07:45:17.837Z,64.81
2023-05-14T07:47:47.033Z,64.76
2023-05-14T07:50:16.650Z,65.11
2023-05-14T07:52:47.084Z,64.71
2023-05-14T07:55:15.781Z,64.97
2023-05-14T07:57:44.753Z,64.67
2023-05-14T08:00:15.017Z,64.25
2023-05-14T08:02:44.547Z,64.87
2023-05-14T08:05:13.579Z,64.59
2023-05-14T08:07:42.569Z,64.30
2023-05-14T08:10:12.748Z,63.69
2023-05-14T08:12:42.859Z,63.76
2023-05-14T08:15:12.069Z,63.81
2023-05-14T08:17:40.988Z,63.14
2023-05-14T08:20:12.047Z,63.00
2023-05-14T08:22:41.508Z,64.18
2023-05-14T08:25:10.564Z,63.56
2023-05-14T08:27:40.982Z,63.58
2023-05-14T08:30:10.224Z,64.03
2023-05-14T08:32:39.516Z,63.27
2023-05-14T08:35:08.920Z,63.76
2023-05-14T08:37:37.917Z,65.00
2023-05-14T08:40:08.771Z,64.70
2023-05-14T08:42:41.818Z,64.51
2023-05-14T08:45:17.370Z,64.54
2023-05-14T08:47:49.845Z,64.03
2023-05-14T08:50:21.921Z,64.13
2023-05-14T08:52:52.940Z,64.88
2023-05-14T08:55:22.525Z,65.02
2023-05-14T08:57:52.825Z,64.07
2023-05-14T09:00:22.060Z,64.72
2023-05-14T09:02:52.097Z,64.53
2023-05-14T09:05:21.998Z,64.72
2023-05-14T09:07:51.354Z,63.94
2023-05-14T09:10:21.121Z,63.02
2023-05-14T09:12:50.199Z,62.98
2023-05-14T09:15:20.430Z,63.14
2023-05-14T09:17:49.581Z,63.03
2023-05-14T09:20:18.417Z,62.48
2023-05-14T09:22:47.288Z,62.20
2023-05-14T09:25:15.857Z,61.30
2023-05-14T09:27:50.228Z,61.75
2023-05-14T09:30:20.435Z,61.15
2023-05-14T09:32:50.671Z,61.17
2023-05-14T09:35:21.534Z,60.05
2023-05-14T09:37:52.475Z,59.48
2023-05-14T09:40:23.348Z,58.88
2023-05-14T09:42:53.114Z,58.15
2023-05-14T09:45:23.438Z,57.82
2023-05-14T09:47:53.477Z,57.45
2023-05-14T09:50:26.570Z,57.24
2023-05-14T09:52:56.676Z,57.14
2023-05-14T09:55:25.637Z,56.37
2023-05-14T09:57:54.585Z,56.83
2023-05-14T10:00:24.786Z,56.27
2023-05-14T10:02:55.890Z,56.14
2023-05-14T10:05:24.915Z,56.29
2023-05-14T10:07:58.612Z,55.44
2023-05-14T10:10:30.242Z,55.42
2023-05-14T10:13:04.849Z,55.31
2023-05-14T10:15:43.572Z,55.00
2023-05-14T10:18:14.625Z,54.77
2023-05-14T10:20:44.102Z,55.00
2023-05-14T10:23:13.847Z,54.34
2023-05-14T10:25:43.437Z,54.27
2023-05-14T10:28:12.851Z,54.35
2023-05-14T10:30:45.943Z,54.69
2023-05-14T10:33:18.396Z,54.78
2023-05-14T10:35:57.564Z,54.81
2023-05-14T10:38:28.690Z,54.51
2023-05-14T10:41:02.376Z,54.51
2023-05-14T10:43:32.602Z,54.81
2023-05-14T10:46:03.330Z,54.64
2023-05-14T10:48:33.202Z,54.78
2023-05-14T10:51:03.019Z,54.51
2023-05-14T10:53:34.704Z,53.78
2023-05-14T10:56:05.907Z,53.63
2023-05-14T10:58:37.907Z,53.27
2023-05-14T11:01:09.833Z,53.12
2023-05-14T11:03:43.656Z,52.82
2023-05-14T11:06:14.234Z,52.64
2023-05-14T11:08:43.998Z,52.28
2023-05-14T11:11:12.634Z,51.94
2023-05-14T11:13:42.706Z,52.11
2023-05-14T11:16:22.629Z,51.59
2023-05-14T11:19:02.892Z,51.66
2023-05-14T11:21:32.747Z,50.66
2023-05-14T11:24:02.228Z,50.29
2023-05-14T11:26:30.858Z,50.19
2023-05-14T11:29:00.176Z,50.13
2023-05-14T11:31:30.789Z,50.05
2023-05-14T11:34:00.202Z,49.89
2023-05-14T11:36:29.137Z,50.02
2023-05-14T11:38:58.436Z,50.53
2023-05-14T11:41:28.238Z,50.45
2023-05-14T11:43:57.253Z,50.07
2023-05-14T11:46:26.307Z,50.09
2023-05-14T11:48:56.907Z,49.79
2023-05-14T11:51:25.512Z,49.51
2023-05-14T11:53:55.670Z,49.36
2023-05-14T11:56:24.300Z,48.43
2023-05-14T11:58:58.145Z,47.57
2023-05-14T12:01:28.618Z,47.26
2023-05-14T12:04:01.918Z,45.96
2023-05-14T12:06:32.920Z,46.21
2023-05-14T12:09:01.993Z,45.76
2023-05-14T12:11:32.678Z,45.17
2023-05-14T12:14:01.685Z,45.23
2023-05-14T12:16:33.942Z,44.89
2023-05-14T12:19:05.615Z,45.08
2023-05-14T12:21:36.699Z,43.87
2023-05-14T12:24:06.320Z,43.76
2023-05-14T12:26:35.698Z,43.70
2023-05-14T12:29:06.690Z,43.06
2023-05-14T12:31:36.398Z,42.96
2023-05-14T12:34:07.227Z,42.51
2023-05-14T12:36:36.250Z,42.73
2023-05-14T12:39:06.178Z,43.11
2023-05-14T12:41:36.354Z,42.98
2023-05-14T12:44:06.350Z,42.88
2023-05-14T12:46:35.439Z,43.27
2023-05-14T12:49:04.355Z,42.68
2023-05-14T12:51:34.943Z,42.08
2023-05-14T12:54:03.875Z,41.37
2023-05-14T12:56:32.811Z,40.35
2023-05-14T12:59:01.669Z,38.94
2023-05-14T13:01:30.343Z,38.06
2023-05-14T13:03:59.665Z,37.96
2023-05-14T13:06:28.408Z,37.43
2023-05-14T13:09:00.336Z,36.96
2023-05-14T13:11:31.813Z,37.04
2023-05-14T13:14:01.549Z,37.60
2023-05-14T13:16:30.684Z,38.53
2023-05-14T13:18:59.924Z,39.41
2023-05-14T13:21:28.564Z,40.14
2023-05-14T13:23:58.877Z,40.64
2023-05-14T13:26:28.359Z,41.11
2023-05-14T13:28:57.345Z,41.21
2023-05-14T13:31:26.111Z,41.22
2023-05-14T13:33:55.373Z,41.28
2023-05-14T13:36:23.949Z,41.60
2023-05-14T13:38:53.017Z,40.93
2023-05-14T13:41:23.041Z,41.94
2023-05-14T13:43:51.883Z,42.55
2023-05-14T13:46:20.578Z,43.09
2023-05-14T13:48:49.516Z,43.54
2023-05-14T13:51:18.130Z,44.00
2023-05-14T13:53:47.207Z,43.68
2023-05-14T13:56:15.886Z,44.48
2023-05-14T13:58:46.317Z,44.93
2023-05-14T14:01:15.059Z,44.61
2023-05-14T14:03:44.034Z,44.98
2023-05-14T14:06:13.018Z,44.75
2023-05-14T14:08:41.920Z,45.13
2023-05-14T14:11:10.786Z,45.26
2023-05-14T14:13:39.925Z,45.33
2023-05-14T14:16:11.678Z,45.63
2023-05-14T14:18:41.485Z,45.62
2023-05-14T14:21:12.080Z,45.32
2023-05-14T14:23:41.646Z,45.90
2023-05-14T14:26:10.260Z,46.16
2023-05-14T14:28:40.408Z,45.77
2023-05-14T14:31:10.378Z,45.82
2023-05-14T14:33:39.623Z,45.67
2023-05-14T14:36:08.944Z,45.72
2023-05-14T14:38:39.081Z,45.61
2023-05-14T14:41:08.187Z,45.93
2023-05-14T14:43:40.338Z,45.67
2023-05-14T14:46:10.780Z,45.63
2023-05-14T14:48:40.061Z,45.73
2023-05-14T14:51:09.796Z,46.03
2023-05-14T14:53:40.428Z,46.03
2023-05-14T14:56:09.280Z,46.00
2023-05-14T14:58:38.708Z,46.19
2023-05-14T15:01:07.706Z,46.01
2023-05-14T15:03:38.231Z,45.50
2023-05-14T15:06:07.369Z,45.14
2023-05-14T15:08:36.438Z,45.31
2023-05-14T15:11:06.297Z,45.70
2023-05-14T15:13:35.369Z,45.17
2023-05-14T15:16:04.142Z,45.15
2023-05-14T15:18:33.062Z,46.00
2023-05-14T15:21:03.226Z,45.86
2023-05-14T15:23:32.660Z,46.05
2023-05-14T15:26:01.281Z,46.48
2023-05-14T15:28:30.270Z,46.58
2023-05-14T15:30:58.946Z,46.74
2023-05-14T15:33:27.943Z,47.21
2023-05-14T15:35:56.886Z,47.14
2023-05-14T15:38:27.388Z,47.69
2023-05-14T15:40:56.032Z,47.95
2023-05-14T15:43:25.211Z,48.15
2023-05-14T15:45:53.824Z,48.03
2023-05-14T15:48:22.689Z,48.19
2023-05-14T15:50:51.674Z,47.77
2023-05-14T15:53:20.992Z,47.73
2023-05-14T15:55:51.265Z,47.62
2023-05-14T15:58:20.200Z,47.71
2023-05-14T16:00:48.923Z,47.67
2023-05-14T16:03:18.764Z,47.95
2023-05-14T16:05:48.613Z,48.44
2023-05-14T16:08:17.611Z,48.08
2023-05-14T16:10:46.228Z,48.44
2023-05-14T16:13:16.649Z,48.96
2023-05-14T16:15:45.239Z,48.60
2023-05-14T16:18:14.153Z,48.79
2023-05-14T16:20:42.720Z,49.30
2023-05-14T16:23:11.795Z,49.47
2023-05-14T16:25:40.440Z,49.86
2023-05-14T16:28:09.431Z,49.68
2023-05-14T16:30:39.406Z,50.36
2023-05-14T16:33:08.467Z,49.97
2023-05-14T16:35:37.106Z,50.72
2023-05-14T16:38:06.049Z,50.78
2023-05-14T16:40:34.728Z,50.50
2023-05-14T16:43:03.720Z,50.42
2023-05-14T16:45:34.846Z,50.70
2023-05-14T16:48:06.206Z,51.22
2023-05-14T16:50:34.865Z,51.55
2023-05-14T16:53:03.830Z,51.59
2023-05-14T16:55:32.409Z,52.05
2023-05-14T16:58:01.230Z,52.33
2023-05-14T17:00:29.947Z,52.27
2023-05-14T17:02:59.157Z,52.00
2023-05-14T17:05:29.390Z,52.19
2023-05-14T17:07:58.435Z,52.39
2023-05-14T17:10:28.110Z,52.46
2023-05-14T17:12:57.198Z,52.67
2023-05-14T17:15:44.166Z,53.21
2023-05-14T17:18:13.420Z,53.54
2023-05-14T17:20:43.962Z,53.37
2023-05-14T17:23:12.703Z,53.38
2023-05-14T17:25:41.798Z,54.05
2023-05-14T17:28:10.403Z,54.09
2023-05-14T17:30:39.433Z,54.13
2023-05-14T17:33:08.292Z,54.52
2023-05-14T17:35:37.749Z,54.26
2023-05-14T17:38:07.929Z,54.40
2023-05-14T17:40:37.332Z,54.59
2023-05-14T17:43:06.023Z,54.74
2023-05-14T17:45:46.177Z,54.54
2023-05-14T17:48:22.636Z,54.60
2023-05-14T17:50:52.202Z,54.26
2023-05-14T17:53:22.338Z,54.53
2023-05-14T17:55:51.571Z,54.72
2023-05-14T17:58:20.281Z,54.53
2023-05-14T18:00:49.260Z,54.95
2023-05-14T18:03:20.349Z,55.32
2023-05-14T18:05:49.547Z,55.50
2023-05-14T18:08:18.112Z,55.36
2023-05-14T18:10:48.431Z,55.67
2023-05-14T18:13:17.036Z,55.65
2023-05-14T18:15:46.041Z,55.71
2023-05-14T18:18:17.176Z,55.72
2023-05-14T18:20:46.389Z,55.47
2023-05-14T18:23:15.072Z,55.73
2023-05-14T18:25:44.236Z,55.91
2023-05-14T18:28:14.610Z,55.72
2023-05-14T18:30:45.428Z,55.86
2023-05-14T18:33:14.242Z,55.45
2023-05-14T18:35:43.568Z,55.47
2023-05-14T18:38:13.854Z,55.38
2023-05-14T18:40:43.018Z,55.71
2023-05-14T18:43:13.443Z,55.96
2023-05-14T18:45:46.154Z,56.14
2023-05-14T18:48:15.533Z,56.30
2023-05-14T18:50:44.520Z,56.32
2023-05-14T18:53:13.120Z,56.51
2023-05-14T18:55:42.628Z,56.55
2023-05-14T18:58:12.150Z,56.83
2023-05-14T19:00:41.420Z,57.28
2023-05-14T19:03:11.655Z,57.50
2023-05-14T19:05:40.829Z,57.64
2023-05-14T19:08:09.452Z,57.33
2023-05-14T19:10:38.464Z,57.42
2023-05-14T19:13:07.413Z,57.49
2023-05-14T19:15:36.474Z,57.73
2023-05-14T19:18:05.487Z,57.73
2023-05-14T19:20:37.966Z,57.88
2023-05-14T19:23:06.739Z,57.95
2023-05-14T19:25:35.816Z,58.04
2023-05-14T19:28:04.935Z,57.96
2023-05-14T19:30:33.926Z,58.20
2023-05-14T19:33:02.610Z,58.29
2023-05-14T19:35:31.837Z,58.31
2023-05-14T19:38:03.135Z,58.41
2023-05-14T19:40:32.270Z,58.10
2023-05-14T19:43:00.986Z,58.31
2023-05-14T19:45:30.130Z,58.34
2023-05-14T19:47:59.113Z,58.61
2023-05-14T19:50:28.194Z,58.30
2023-05-14T19:52:57.099Z,58.00
2023-05-14T19:55:27.478Z,58.11
2023-05-14T19:57:56.320Z,58.56
2023-05-14T20:00:26.484Z,58.25
2023-05-14T20:02:56.800Z,58.75
2023-05-14T20:05:25.980Z,58.50
2023-05-14T20:07:55.785Z,58.38
2023-05-14T20:10:25.053Z,58.47
2023-05-14T20:12:55.134Z,59.00
2023-05-14T20:15:24.248Z,59.05
2023-05-14T20:17:53.262Z,58.97
2023-05-14T20:20:22.411Z,59.12
2023-05-14T20:22:51.350Z,59.32
2023-05-14T20:25:20.877Z,59.02
2023-05-14T20:27:50.192Z,58.89
2023-05-14T20:30:20.795Z,59.37
2023-05-14T20:32:49.425Z,59.60
2023-05-14T20:35:18.557Z,59.12
2023-05-14T20:37:47.324Z,59.25
2023-05-14T20:40:16.551Z,59.04
2023-05-14T20:42:45.534Z,59.31
2023-05-14T20:45:14.378Z,59.45
2023-05-14T20:47:44.454Z,59.69
2023-05-14T20:50:14.290Z,59.70
2023-05-14T20:52:42.978Z,59.47
2023-05-14T20:55:13.035Z,59.61
2023-05-14T20:57:43.452Z,59.65
2023-05-14T21:00:13.797Z,59.59
2023-05-14T21:02:42.617Z,59.71
2023-05-14T21:05:13.893Z,59.48
2023-05-14T21:07:42.685Z,59.54
2023-05-14T21:10:12.298Z,59.36
2023-05-14T21:12:42.104Z,59.45
2023-05-14T21:15:12.437Z,58.96
2023-05-14T21:17:41.424Z,59.25
2023-05-14T21:20:15.462Z,59.23
2023-05-14T21:22:44.163Z,58.90
2023-05-14T21:25:13.242Z,59.04
2023-05-14T21:27:43.312Z,58.92
2023-05-14T21:30:13.808Z,59.49
2023-05-14T21:32:42.752Z,58.95
2023-05-14T21:35:13.199Z,59.16
2023-05-14T21:37:41.964Z,59.11
2023-05-14T21:40:12.429Z,59.02
2023-05-14T21:42:41.602Z,58.50
2023-05-14T21:45:11.457Z,58.68
2023-05-14T21:47:40.457Z,58.51
2023-05-14T21:50:10.211Z,58.66
2023-05-14T21:52:40.128Z,58.75
2023-05-14T21:55:09.846Z,58.66
2023-05-14T21:57:38.488Z,58.82
2023-05-14T22:00:12.506Z,59.10
2023-05-14T22:02:44.072Z,59.40
2023-05-14T22:05:13.114Z,59.62
2023-05-14T22:07:43.305Z,59.54
2023-05-14T22:10:13.619Z,59.86
2023-05-14T22:12:43.854Z,59.57
2023-05-14T22:15:14.059Z,59.88
2023-05-14T22:17:42.788Z,60.13
2023-05-14T22:20:12.170Z,60.21
2023-05-14T22:22:41.083Z,60.03
2023-05-14T22:25:11.830Z,60.24
2023-05-14T22:27:40.410Z,60.00
2023-05-14T22:30:10.167Z,60.28
2023-05-14T22:32:38.907Z,60.39
2023-05-14T22:35:08.260Z,60.50
2023-05-14T22:37:37.182Z,60.96
2023-05-14T22:40:07.542Z,61.06
2023-05-14T22:42:37.757Z,61.12
2023-05-14T22:45:08.031Z,61.11
2023-05-14T22:47:36.783Z,61.60
2023-05-14T22:50:11.249Z,61.53
2023-05-14T22:52:40.215Z,61.53
2023-05-14T22:55:10.087Z,61.79
2023-05-14T22:57:40.259Z,61.91
2023-05-14T23:00:10.034Z,61.57
2023-05-14T23:02:39.553Z,61.67
2023-05-14T23:05:09.740Z,61.65
2023-05-14T23:07:38.756Z,61.58
2023-05-14T23:10:08.104Z,61.75
2023-05-14T23:12:37.237Z,61.81
2023-05-14T23:15:08.397Z,61.95
2023-05-14T23:17:37.470Z,62.11
2023-05-14T23:20:07.351Z,61.91
2023-05-14T23:22:36.340Z,62.19
2023-05-14T23:25:05.444Z,62.28
2023-05-14T23:27:34.570Z,62.56
2023-05-14T23:30:04.218Z,62.37
2023-05-14T23:32:34.834Z,62.55
2023-05-14T23:35:03.594Z,62.19
2023-05-14T23:37:33.747Z,61.96
2023-05-14T23:40:02.599Z,61.81
2023-05-14T23:42:32.244Z,61.66
2023-05-14T23:45:00.917Z,61.90
2023-05-14T23:47:30.404Z,61.82
2023-05-14T23:50:00.477Z,61.73
2023-05-14T23:52:29.558Z,61.55
2023-05-14T23:54:58.230Z,61.62
2023-05-14T23:57:27.362Z,61.53
2023-05-14T23:59:56.100Z,61.17
